Budapest Bridge — VRIZ5 — position and weather

sailwx.info

Track history (hours):
 
Tides and Currents Weather Stations Pressure Air Temp Water Temp Dewpoint Dewpoint Depression Visibility Wind Speed Wind Dir Waves Ship Positions

Budapest Bridge

Last reported at 2016-Jul-27 17:31 UTC. Time now 2016-Jul-28 16:25 UTC.
Position N 33°48' E 134°53'.

Length 268 m; draft 12.2 m.

Type: Cargo ship. MMSI: 477434200.

Date/timePositionNaut miles runAvg speedWind from/ knotsBaromVisibWave heightAir tempDewpointWater temp
2016-Jul-27 17:31N 33°48' E 134°53'1818.3
2016-Jul-27 16:34N 34°05' E 134°56'1616.2
2016-Jul-27 15:33N 34°21' E 135°00'2019.9
2016-Jul-27 14:33N 34°36' E 135°15'5 4.3
2016-Jul-27 13:30N 34°41' E 135°16'0 0.0
2016-Jul-27 12:30N 34°41' E 135°16'0 0.0
2016-Jul-27 11:27N 34°41' E 135°16'0 0.0
2016-Jul-27 10:33N 34°41' E 135°16'0 0.0
2016-Jul-27 09:33N 34°41' E 135°16'0 0.0
2016-Jul-27 08:33N 34°41' E 135°16'0 0.0
2016-Jul-27 07:27N 34°41' E 135°16'0 0.0
2016-Jul-27 06:30N 34°41' E 135°16'0 0.0
2016-Jul-27 05:30N 34°41' E 135°16'0 0.0
2016-Jul-27 04:33N 34°41' E 135°16'0 0.0
2016-Jul-27 03:33N 34°41' E 135°16'0 0.0
2016-Jul-27 02:30N 34°41' E 135°16'0 0.0
2016-Jul-27 01:27N 34°41' E 135°16'0 0.0
2016-Jul-27 00:33N 34°41' E 135°16'7 7.1
2016-Jul-26 23:33N 34°34' E 135°14'1817.6
2016-Jul-26 22:33N 34°20' E 135°01'1313.0
2016-Jul-26 21:33N 34°07' E 134°60'6 5.9
2016-Jul-26 20:33N 34°01' E 134°59'229 4.9
2016-Jul-24 22:12N 34°38' E 139°32'1519.9
2016-Jul-24 21:28N 34°52' E 139°36'1719.1
2016-Jul-24 20:33N 35°08' E 139°45'1212.3
2016-Jul-24 19:33N 35°20' E 139°43'7 6.8
2016-Jul-24 18:31N 35°27' E 139°40'0 0.0
2016-Jul-24 17:31N 35°27' E 139°40'0 0.0
2016-Jul-24 16:31N 35°27' E 139°40'0 0.0
2016-Jul-24 15:31N 35°27' E 139°40'0 0.0
2016-Jul-24 14:31N 35°27' E 139°40'0 0.0
2016-Jul-24 13:31N 35°27' E 139°40'0 0.0
2016-Jul-24 12:31N 35°27' E 139°40'0 0.0
2016-Jul-24 11:31N 35°27' E 139°40'0 0.0
2016-Jul-24 10:31N 35°27' E 139°40'0 0.0
2016-Jul-24 09:31N 35°27' E 139°40'0 0.0
2016-Jul-24 08:31N 35°27' E 139°40'1 1.3
2016-Jul-24 07:33N 35°27' E 139°42'4 3.8
2016-Jul-24 06:32N 35°29' E 139°45'0 0.0
2016-Jul-24 05:32N 35°29' E 139°45'0 0.0
2016-Jul-24 04:32N 35°29' E 139°45'0 0.0
2016-Jul-24 03:32N 35°29' E 139°45'0 0.0
2016-Jul-24 02:29N 35°29' E 139°45'0 0.0
2016-Jul-24 01:32N 35°29' E 139°45'0 0.0
2016-Jul-24 00:32N 35°29' E 139°45'0 0.0
2016-Jul-23 23:32N 35°29' E 139°45'0 0.0
2016-Jul-23 22:32N 35°29' E 139°45'2 2.3
2016-Jul-23 21:33N 35°28' E 139°47'9 8.9
2016-Jul-23 20:33N 35°37' E 139°46'0 0.2
2016-Jul-23 19:32N 35°37' E 139°46'0 0.0
2016-Jul-23 18:32N 35°37' E 139°46'0 0.0
2016-Jul-23 17:32N 35°37' E 139°46'0 0.0
2016-Jul-23 16:32N 35°37' E 139°46'0 0.0
2016-Jul-23 15:32N 35°37' E 139°46'0 0.0
2016-Jul-23 14:32N 35°37' E 139°46'0 0.0
2016-Jul-23 13:32N 35°37' E 139°46'0 0.0
2016-Jul-23 12:32N 35°37' E 139°46'0 0.0
2016-Jul-23 11:32N 35°37' E 139°46'0 0.0
2016-Jul-23 10:32N 35°37' E 139°46'0 0.0
2016-Jul-23 09:32N 35°37' E 139°46'3 2.6
2016-Jul-23 08:34N 35°35' E 139°48'1111.3
2016-Jul-23 07:33N 35°24' E 139°46'1212.2
2016-Jul-23 06:34N 35°11' E 139°47'16 7.8
2016-Jul-23 04:33N 34°57' E 139°40'1211.9
2016-Jul-23 03:31N 34°45' E 139°37'  
Track history (hours):
 
Tides and Currents Weather Stations Pressure Air Temp Water Temp Dewpoint Dewpoint Depression Visibility Wind Speed Wind Dir Waves Ship Positions

Budapest Bridge

Last reported at 2016-Jul-27 17:31 UTC. Time now 2016-Jul-28 16:25 UTC.
Position N 33°48' E 134°53'.

Length 268 m; draft 12.2 m.

Type: Cargo ship. MMSI: 477434200.

Date/timePositionNaut miles runAvg speedWind from/ knotsBaromVisibWave heightAir tempDewpointWater temp
2016-Jul-27 17:31N 33°48' E 134°53'1818.3
2016-Jul-27 16:34N 34°05' E 134°56'1616.2
2016-Jul-27 15:33N 34°21' E 135°00'2019.9
2016-Jul-27 14:33N 34°36' E 135°15'5 4.3
2016-Jul-27 13:30N 34°41' E 135°16'0 0.0
2016-Jul-27 12:30N 34°41' E 135°16'0 0.0
2016-Jul-27 11:27N 34°41' E 135°16'0 0.0
2016-Jul-27 10:33N 34°41' E 135°16'0 0.0
2016-Jul-27 09:33N 34°41' E 135°16'0 0.0
2016-Jul-27 08:33N 34°41' E 135°16'0 0.0
2016-Jul-27 07:27N 34°41' E 135°16'0 0.0
2016-Jul-27 06:30N 34°41' E 135°16'0 0.0
2016-Jul-27 05:30N 34°41' E 135°16'0 0.0
2016-Jul-27 04:33N 34°41' E 135°16'0 0.0
2016-Jul-27 03:33N 34°41' E 135°16'0 0.0
2016-Jul-27 02:30N 34°41' E 135°16'0 0.0
2016-Jul-27 01:27N 34°41' E 135°16'0 0.0
2016-Jul-27 00:33N 34°41' E 135°16'7 7.1
2016-Jul-26 23:33N 34°34' E 135°14'1817.6
2016-Jul-26 22:33N 34°20' E 135°01'1313.0
2016-Jul-26 21:33N 34°07' E 134°60'6 5.9
2016-Jul-26 20:33N 34°01' E 134°59'229 4.9
2016-Jul-24 22:12N 34°38' E 139°32'1519.9
2016-Jul-24 21:28N 34°52' E 139°36'1719.1
2016-Jul-24 20:33N 35°08' E 139°45'1212.3
2016-Jul-24 19:33N 35°20' E 139°43'7 6.8
2016-Jul-24 18:31N 35°27' E 139°40'0 0.0
2016-Jul-24 17:31N 35°27' E 139°40'0 0.0
2016-Jul-24 16:31N 35°27' E 139°40'0 0.0
2016-Jul-24 15:31N 35°27' E 139°40'0 0.0
2016-Jul-24 14:31N 35°27' E 139°40'0 0.0
2016-Jul-24 13:31N 35°27' E 139°40'0 0.0
2016-Jul-24 12:31N 35°27' E 139°40'0 0.0
2016-Jul-24 11:31N 35°27' E 139°40'0 0.0
2016-Jul-24 10:31N 35°27' E 139°40'0 0.0
2016-Jul-24 09:31N 35°27' E 139°40'0 0.0
2016-Jul-24 08:31N 35°27' E 139°40'1 1.3
2016-Jul-24 07:33N 35°27' E 139°42'4 3.8
2016-Jul-24 06:32N 35°29' E 139°45'0 0.0
2016-Jul-24 05:32N 35°29' E 139°45'0 0.0
2016-Jul-24 04:32N 35°29' E 139°45'0 0.0
2016-Jul-24 03:32N 35°29' E 139°45'0 0.0
2016-Jul-24 02:29N 35°29' E 139°45'0 0.0
2016-Jul-24 01:32N 35°29' E 139°45'0 0.0
2016-Jul-24 00:32N 35°29' E 139°45'0 0.0
2016-Jul-23 23:32N 35°29' E 139°45'0 0.0
2016-Jul-23 22:32N 35°29' E 139°45'2 2.3
2016-Jul-23 21:33N 35°28' E 139°47'9 8.9
2016-Jul-23 20:33N 35°37' E 139°46'0 0.2
2016-Jul-23 19:32N 35°37' E 139°46'0 0.0
2016-Jul-23 18:32N 35°37' E 139°46'0 0.0
2016-Jul-23 17:32N 35°37' E 139°46'0 0.0
2016-Jul-23 16:32N 35°37' E 139°46'0 0.0
2016-Jul-23 15:32N 35°37' E 139°46'0 0.0
2016-Jul-23 14:32N 35°37' E 139°46'0 0.0
2016-Jul-23 13:32N 35°37' E 139°46'0 0.0
2016-Jul-23 12:32N 35°37' E 139°46'0 0.0
2016-Jul-23 11:32N 35°37' E 139°46'0 0.0
2016-Jul-23 10:32N 35°37' E 139°46'0 0.0
2016-Jul-23 09:32N 35°37' E 139°46'3 2.6
2016-Jul-23 08:34N 35°35' E 139°48'1111.3
2016-Jul-23 07:33N 35°24' E 139°46'1212.2
2016-Jul-23 06:34N 35°11' E 139°47'16 7.8
2016-Jul-23 04:33N 34°57' E 139°40'1211.9
2016-Jul-23 03:31N 34°45' E 139°37'  

Dump ship's entire track history